Time;durP1;ratioP1;P1;durP2;ratioP2;P2;SDS_P1;SDS_P2;PMS_P1;PMS_P2;Temp;Humidity;BMP_temperature;BMP_pressure;BME280_temperature;BME280_humidity;BME280_pressure;Samples;Min_cycle;Max_cycle;Signal;HPM_P1;HPM_P2
2021/12/16 00:04:11;;;;;;;0.55;0.17;;;7.70;99.90;;;;;;5076322;28;20052;-83
2021/12/16 00:09:15;;;;;;;0.60;0.50;;;7.80;99.90;;;;;;5075825;28;20056;-83
2021/12/16 00:33:31;;;;;;;0.03;0.03;;;8.00;99.90;;;;;;5075534;28;20322;-83
2021/12/16 00:35:57;;;;;;;0.10;0.08;;;8.00;99.90;;;;;;5058380;28;20048;-83
2021/12/16 00:38:22;;;;;;;1.55;0.85;;;8.10;99.90;;;;;;5075832;28;20048;-83
2021/12/16 00:40:48;;;;;;;6.30;0.80;;;8.10;99.90;;;;;;5075478;28;20123;-83
2021/12/16 00:43:55;;;;;;;0.95;0.65;;;8.10;99.90;;;;;;5058605;28;20061;-83
2021/12/16 00:54:09;;;;;;;0.00;0.00;;;8.20;99.90;;;;;;5075166;28;20045;-83
2021/12/16 00:56:36;;;;;;;0.52;0.43;;;8.20;99.90;;;;;;5075497;28;20056;-83
2021/12/16 00:59:04;;;;;;;0.40;0.08;;;8.20;99.90;;;;;;5058745;28;20087;-83
2021/12/16 01:34:06;;;;;;;0.98;0.75;;;8.10;99.90;;;;;;5036128;28;20127;-83
2021/12/16 01:36:56;;;;;;;0.20;0.20;;;8.10;99.90;;;;;;5019518;28;20048;-83
2021/12/16 01:50:21;;;;;;;0.17;0.17;;;8.00;99.90;;;;;;5038231;28;20049;-83
2021/12/16 01:57:55;;;;;;;4.65;1.75;;;7.90;99.90;;;;;;5073971;28;20113;-83
2021/12/16 02:00:51;;;;;;;2.20;0.95;;;8.00;99.90;;;;;;5057178;28;20040;-83
2021/12/16 02:03:24;;;;;;;0.65;0.43;;;7.90;99.90;;;;;;5056344;28;20036;-83
2021/12/16 02:08:20;;;;;;;0.38;0.20;;;7.90;99.90;;;;;;5073090;28;20051;-83
2021/12/16 02:10:58;;;;;;;0.15;0.03;;;8.00;99.90;;;;;;5073959;28;20427;-83
2021/12/16 02:13:43;;;;;;;0.00;0.00;;;7.90;99.90;;;;;;5073992;28;20041;-83
2021/12/16 02:32:43;;;;;;;1.17;0.38;;;8.00;99.90;;;;;;5074020;28;20056;-83
2021/12/16 02:37:54;;;;;;;17.08;1.00;;;8.00;99.90;;;;;;5073022;28;20047;-83
2021/12/16 02:40:20;;;;;;;1.02;0.90;;;8.10;99.90;;;;;;5073772;28;20041;-83
2021/12/16 02:42:58;;;;;;;0.13;0.10;;;8.10;99.90;;;;;;5056381;28;20040;-83
2021/12/16 02:50:55;;;;;;;0.00;0.00;;;8.10;99.90;;;;;;5072474;28;20105;-83
2021/12/16 02:53:20;;;;;;;0.40;0.40;;;8.10;99.90;;;;;;5073493;28;20048;-83
2021/12/16 02:55:46;;;;;;;0.88;0.30;;;8.10;99.90;;;;;;5072301;28;20139;-83
2021/12/16 02:58:13;;;;;;;0.15;0.10;;;8.10;99.90;;;;;;5055561;28;20070;-83
2021/12/16 03:00:45;;;;;;;3.08;0.75;;;8.20;99.90;;;;;;5055678;28;20098;-83
2021/12/16 03:03:11;;;;;;;1.73;0.80;;;8.20;99.90;;;;;;5055633;28;20037;-83
2021/12/16 03:05:38;;;;;;;0.20;0.20;;;8.10;99.90;;;;;;5072654;28;20117;-83
2021/12/16 03:08:05;;;;;;;4.10;0.55;;;8.20;99.90;;;;;;5072919;28;20044;-83
2021/12/16 03:16:16;;;;;;;0.45;0.30;;;8.10;99.90;;;;;;5034788;28;20053;-83
2021/12/16 03:21:22;;;;;;;0.32;0.20;;;8.20;99.90;;;;;;5034871;28;20041;-83
2021/12/16 03:37:16;;;;;;;0.20;0.20;;;8.20;99.90;;;;;;5035302;28;20111;-83
2021/12/16 03:39:52;;;;;;;1.05;0.68;;;8.10;99.90;;;;;;4979495;28;20152;-84
2021/12/16 03:42:25;;;;;;;0.80;0.45;;;8.10;99.90;;;;;;4995306;28;20501;-83
2021/12/16 03:44:57;;;;;;;0.70;0.40;;;8.10;99.90;;;;;;4994703;28;20494;-83
2021/12/16 03:47:42;;;;;;;0.40;0.32;;;8.10;99.90;;;;;;5011499;28;20157;-83
2021/12/16 03:50:20;;;;;;;0.25;0.20;;;8.10;99.90;;;;;;4990215;28;20156;-83
2021/12/16 03:52:48;;;;;;;0.00;0.00;;;8.10;99.90;;;;;;4995462;28;20575;-83
2021/12/16 03:55:14;;;;;;;1.15;0.65;;;8.10;99.90;;;;;;4996037;28;20061;-83
2021/12/16 03:57:40;;;;;;;0.10;0.10;;;8.10;99.90;;;;;;4996120;28;20092;-83
2021/12/16 04:00:15;;;;;;;0.17;0.17;;;8.10;99.90;;;;;;4995182;28;20049;-83
2021/12/16 04:02:41;;;;;;;0.00;0.00;;;8.10;99.90;;;;;;4997789;28;20104;-83
2021/12/16 04:05:09;;;;;;;2.92;0.85;;;8.10;99.90;;;;;;4998492;28;20042;-81
2021/12/16 04:07:37;;;;;;;0.73;0.52;;;8.10;99.90;;;;;;4982362;28;20049;-81
2021/12/16 04:10:10;;;;;;;0.50;0.50;;;8.20;99.90;;;;;;4998190;28;20136;-81
2021/12/16 04:12:36;;;;;;;0.38;0.38;;;8.10;99.90;;;;;;4998559;28;20049;-82
2021/12/16 04:15:05;;;;;;;0.22;0.17;;;8.20;99.90;;;;;;4998433;28;20568;-82
2021/12/16 04:17:34;;;;;;;2.70;1.00;;;8.10;99.90;;;;;;5064138;28;20407;-82
2021/12/16 04:20:03;;;;;;;0.13;0.00;;;8.20;99.90;;;;;;5075308;28;20063;-82
2021/12/16 04:22:34;;;;;;;1.23;0.45;;;8.20;99.90;;;;;;5058412;28;20062;-82
2021/12/16 04:25:06;;;;;;;0.03;0.00;;;8.20;99.90;;;;;;5058551;28;20059;-82
2021/12/16 04:27:33;;;;;;;0.75;0.75;;;8.10;99.90;;;;;;5075173;28;20049;-82
2021/12/16 04:29:59;;;;;;;1.00;0.35;;;8.20;99.90;;;;;;5058426;28;20496;-82
2021/12/16 04:32:25;;;;;;;0.25;0.25;;;8.20;99.90;;;;;;5059265;28;20059;-82
2021/12/16 04:34:51;;;;;;;0.50;0.25;;;8.10;99.90;;;;;;5058301;28;20131;-82
2021/12/16 04:37:17;;;;;;;0.10;0.10;;;8.20;99.90;;;;;;5058198;28;20087;-82
2021/12/16 04:39:45;;;;;;;1.00;0.45;;;8.20;99.90;;;;;;5058091;28;20047;-83
2021/12/16 04:42:16;;;;;;;0.63;0.08;;;8.10;99.90;;;;;;5058652;28;20400;-82
2021/12/16 04:44:42;;;;;;;0.52;0.40;;;8.20;99.90;;;;;;5075370;28;20404;-82
2021/12/16 04:47:08;;;;;;;6.95;0.75;;;8.20;99.90;;;;;;5058425;28;20484;-82
2021/12/16 04:49:35;;;;;;;0.55;0.55;;;8.20;99.90;;;;;;5075581;28;20458;-82
2021/12/16 04:52:05;;;;;;;0.00;0.00;;;8.30;99.90;;;;;;5058757;28;20045;-82
2021/12/16 04:54:32;;;;;;;1.77;0.55;;;8.20;99.90;;;;;;5058667;28;20040;-83
2021/12/16 04:56:59;;;;;;;0.60;0.55;;;8.20;99.90;;;;;;5076029;28;20082;-82
2021/12/16 04:59:28;;;;;;;0.00;0.00;;;8.20;99.90;;;;;;5075404;28;20044;-82
2021/12/16 05:01:58;;;;;;;0.10;0.10;;;8.20;99.90;;;;;;5057955;28;20051;-83
2021/12/16 05:04:25;;;;;;;0.00;0.00;;;8.50;99.90;;;;;;5058203;28;20048;-81
2021/12/16 05:06:51;;;;;;;0.17;0.17;;;8.20;99.90;;;;;;5058378;28;20052;-82
2021/12/16 05:09:47;;;;;;;1.17;0.73;;;8.20;99.90;;;;;;5074494;28;20098;-82
2021/12/16 05:12:05;;;;;;;0.95;0.57;;;8.20;99.90;;;;;;5074213;28;20048;-82
2021/12/16 05:14:31;;;;;;;0.10;0.10;;;8.30;99.90;;;;;;5058513;28;20074;-82
2021/12/16 05:16:57;;;;;;;0.17;0.17;;;8.30;99.90;;;;;;5057640;28;20056;-82
2021/12/16 05:19:23;;;;;;;0.10;0.10;;;8.30;99.90;;;;;;5057640;28;20044;-83
2021/12/16 05:21:57;;;;;;;0.20;0.20;;;8.30;99.90;;;;;;5075516;28;20101;-83
2021/12/16 05:24:25;;;;;;;0.23;0.23;;;8.30;99.90;;;;;;5074819;28;20048;-83
2021/12/16 05:26:57;;;;;;;0.20;0.20;;;8.30;99.90;;;;;;5056938;28;20310;-83
2021/12/16 05:29:24;;;;;;;0.30;0.30;;;8.30;99.90;;;;;;5057820;28;20041;-83
2021/12/16 05:31:50;;;;;;;0.32;0.32;;;8.30;99.90;;;;;;5073959;28;20095;-83
2021/12/16 05:34:17;;;;;;;0.00;0.00;;;8.30;99.90;;;;;;5057410;28;20565;-83
2021/12/16 05:36:44;;;;;;;0.10;0.10;;;8.30;99.90;;;;;;5057308;28;20063;-83
2021/12/16 05:39:12;;;;;;;0.57;0.57;;;8.30;99.90;;;;;;5057278;28;20048;-83
2021/12/16 05:41:38;;;;;;;1.23;0.63;;;8.30;99.90;;;;;;5056733;28;20121;-83
2021/12/16 05:44:04;;;;;;;0.20;0.20;;;8.30;99.90;;;;;;5056728;28;20056;-83
2021/12/16 05:46:30;;;;;;;0.63;0.28;;;8.30;99.90;;;;;;5073985;28;20048;-83
2021/12/16 05:48:58;;;;;;;0.45;0.38;;;8.30;99.90;;;;;;5056876;28;20040;-83
2021/12/16 05:51:29;;;;;;;0.10;0.10;;;8.30;99.90;;;;;;5074507;28;20404;-82
2021/12/16 05:53:56;;;;;;;0.38;0.38;;;8.30;99.90;;;;;;5057717;28;20396;-82
2021/12/16 05:56:22;;;;;;;0.05;0.00;;;8.40;99.90;;;;;;5057795;28;20075;-83
2021/12/16 05:58:48;;;;;;;0.30;0.20;;;8.30;99.90;;;;;;5056924;28;20052;-82
2021/12/16 06:01:19;;;;;;;2.72;0.80;;;8.40;99.90;;;;;;5057441;28;20052;-83
2021/12/16 06:03:45;;;;;;;0.57;0.22;;;8.40;99.90;;;;;;5056590;28;20111;-83
2021/12/16 06:06:11;;;;;;;0.28;0.28;;;8.50;99.90;;;;;;5056729;28;20131;-83
2021/12/16 06:08:38;;;;;;;0.40;0.20;;;8.40;99.90;;;;;;5056490;28;20098;-82
2021/12/16 06:11:21;;;;;;;0.98;0.32;;;8.40;99.90;;;;;;5073372;28;20428;-83
2021/12/16 06:14:03;;;;;;;1.13;0.10;;;8.40;99.90;;;;;;5056430;28;20443;-83
2021/12/16 06:27:30;;;;;;;;;;;8.40;99.90;;;;;;5074244;28;20052;-83
2021/12/16 06:29:57;;;;;;;0.25;0.22;;;8.40;99.90;;;;;;5073154;28;19927;-83
2021/12/16 06:32:23;;;;;;;0.13;0.13;;;8.50;99.90;;;;;;5072914;28;20045;-83
2021/12/16 06:34:49;;;;;;;0.38;0.30;;;8.40;99.90;;;;;;5056345;28;20139;-83
2021/12/16 06:37:16;;;;;;;0.00;0.00;;;8.40;99.90;;;;;;5056202;28;20085;-83
2021/12/16 06:39:42;;;;;;;0.10;0.10;;;8.40;99.90;;;;;;5072588;28;20044;-83
2021/12/16 06:42:09;;;;;;;0.88;0.38;;;8.40;99.90;;;;;;5056079;28;20132;-83
2021/12/16 06:45:03;;;;;;;0.15;0.15;;;8.40;99.90;;;;;;5055833;28;20049;-82
2021/12/16 06:47:34;;;;;;;0.17;0.10;;;8.40;99.90;;;;;;5072232;28;20132;-82
2021/12/16 06:49:59;;;;;;;0.00;0.00;;;8.40;99.90;;;;;;5056310;28;20056;-82
2021/12/16 06:52:33;;;;;;;0.00;0.00;;;8.40;99.90;;;;;;5072732;28;20051;-82
2021/12/16 06:55:20;;;;;;;0.20;0.20;;;8.40;99.90;;;;;;5072710;28;20098;-82
2021/12/16 06:57:53;;;;;;;0.25;0.08;;;8.40;99.90;;;;;;5072513;28;20506;-82
2021/12/16 07:00:40;;;;;;;1.02;0.20;;;8.40;99.90;;;;;;5072827;28;20492;-83
2021/12/16 07:03:17;;;;;;;0.60;0.20;;;8.40;99.90;;;;;;5055779;28;20435;-82
2021/12/16 07:05:47;;;;;;;1.75;0.57;;;8.40;99.90;;;;;;5072595;28;20106;-83
2021/12/16 07:08:17;;;;;;;0.47;0.40;;;8.50;99.90;;;;;;5073640;28;20105;-83
2021/12/16 07:10:45;;;;;;;0.20;0.05;;;8.40;99.90;;;;;;5072853;28;20097;-82
2021/12/16 07:13:19;;;;;;;0.13;0.13;;;8.50;99.90;;;;;;5055913;28;20052;-82
2021/12/16 07:15:46;;;;;;;1.15;0.20;;;8.50;99.90;;;;;;5072711;28;20063;-82
2021/12/16 07:18:12;;;;;;;0.03;0.03;;;8.40;99.90;;;;;;5055785;28;20056;-82
2021/12/16 07:20:38;;;;;;;0.28;0.28;;;8.40;99.90;;;;;;5056086;28;20053;-83
2021/12/16 07:23:07;;;;;;;0.15;0.15;;;8.40;99.90;;;;;;5072606;28;20090;-83
2021/12/16 07:25:34;;;;;;;1.35;0.80;;;8.50;99.90;;;;;;5043663;28;20093;-83
2021/12/16 07:28:03;;;;;;;0.10;0.10;;;8.40;99.90;;;;;;5052753;28;20084;-83
2021/12/16 07:30:30;;;;;;;1.75;0.68;;;8.30;99.90;;;;;;5052798;28;20052;-83
2021/12/16 07:32:56;;;;;;;0.85;0.20;;;8.40;99.90;;;;;;5053180;28;20049;-82
2021/12/16 07:35:25;;;;;;;0.15;0.15;;;8.30;99.90;;;;;;5054635;28;20349;-80
2021/12/16 07:37:51;;;;;;;0.35;0.35;;;8.40;99.90;;;;;;5060781;28;20037;-84
2021/12/16 07:40:22;;;;;;;0.82;0.80;;;8.30;99.90;;;;;;5050580;28;20056;-84
2021/12/16 07:45:40;;;;;;;0.10;0.10;;;8.30;99.90;;;;;;5071539;28;20083;-83
2021/12/16 07:48:06;;;;;;;0.35;0.35;;;8.30;99.90;;;;;;5039151;28;20048;-87
2021/12/16 07:50:32;;;;;;;0.10;0.10;;;8.30;99.90;;;;;;5059112;28;20048;-83
2021/12/16 07:52:58;;;;;;;0.20;0.20;;;8.10;99.90;;;;;;5051524;28;20072;-83
2021/12/16 07:55:24;;;;;;;0.10;0.10;;;8.30;99.90;;;;;;5049380;28;20044;-82
2021/12/16 07:57:50;;;;;;;0.22;0.10;;;8.40;99.90;;;;;;5066360;28;20127;-87
2021/12/16 08:00:26;;;;;;;0.45;0.20;;;8.20;99.90;;;;;;5066811;28;20045;-84
2021/12/16 08:02:53;;;;;;;0.15;0.15;;;8.60;99.90;;;;;;5045769;28;20116;-84
2021/12/16 08:05:22;;;;;;;0.00;0.00;;;8.20;99.90;;;;;;5044417;28;20044;-83
2021/12/16 08:07:47;;;;;;;1.58;0.10;;;8.10;99.90;;;;;;5060913;28;20106;-83
2021/12/16 08:10:16;;;;;;;1.48;0.15;;;8.10;99.90;;;;;;5054366;28;20467;-84
2021/12/16 08:12:42;;;;;;;0.82;0.20;;;8.10;99.90;;;;;;5069950;28;20037;-83
2021/12/16 08:15:08;;;;;;;0.35;0.13;;;8.60;99.90;;;;;;5049617;28;20053;-83
2021/12/16 08:17:34;;;;;;;0.10;0.10;;;8.00;99.90;;;;;;5046932;28;20512;-82
2021/12/16 08:20:00;;;;;;;0.00;0.00;;;7.90;99.90;;;;;;5066457;28;20048;-84
2021/12/16 08:22:26;;;;;;;2.90;0.28;;;8.20;99.90;;;;;;5043530;28;20515;-84
2021/12/16 08:24:52;;;;;;;0.10;0.10;;;7.90;99.90;;;;;;5044066;28;20128;-84
2021/12/16 08:27:19;;;;;;;0.00;0.00;;;7.90;99.90;;;;;;5052193;28;20059;-84
2021/12/16 08:29:45;;;;;;;0.30;0.10;;;7.80;99.90;;;;;;5045099;28;20045;-84
2021/12/16 08:32:11;;;;;;;0.40;0.10;;;7.80;99.90;;;;;;5066403;28;20123;-83
2021/12/16 08:34:39;;;;;;;0.30;0.25;;;7.80;99.90;;;;;;5047748;28;20052;-82
2021/12/16 08:37:07;;;;;;;0.85;0.40;;;7.90;99.90;;;;;;5049564;28;20060;-82
2021/12/16 08:39:34;;;;;;;1.83;0.40;;;7.90;99.90;;;;;;5054543;28;20046;-83
2021/12/16 08:42:01;;;;;;;0.60;0.47;;;7.90;99.90;;;;;;5074816;28;20124;-82
2021/12/16 08:44:27;;;;;;;0.93;0.93;;;8.00;99.90;;;;;;5075152;28;20388;-82
2021/12/16 08:46:58;;;;;;;0.80;0.80;;;8.00;99.90;;;;;;5074894;28;20051;-84
2021/12/16 08:49:24;;;;;;;0.20;0.10;;;8.10;99.90;;;;;;5075669;28;20040;-87
2021/12/16 08:51:53;;;;;;;2.05;0.20;;;8.10;99.90;;;;;;5048319;28;20040;-87
2021/12/16 08:54:20;;;;;;;0.32;0.32;;;8.10;99.90;;;;;;5041210;28;20122;-85
2021/12/16 08:56:47;;;;;;;0.30;0.30;;;8.20;99.90;;;;;;5038868;28;20045;-84
2021/12/16 08:59:13;;;;;;;0.55;0.55;;;8.10;99.90;;;;;;5039035;28;20051;-84
2021/12/16 09:01:44;;;;;;;1.23;0.35;;;8.20;99.90;;;;;;5038245;28;20057;-85
2021/12/16 09:04:10;;;;;;;0.20;0.10;;;8.20;99.90;;;;;;5038235;28;20045;-84
2021/12/16 09:06:37;;;;;;;0.52;0.40;;;8.20;99.90;;;;;;5037719;28;20084;-85
2021/12/16 09:09:05;;;;;;;0.08;0.08;;;8.30;99.90;;;;;;5037887;28;20497;-85
2021/12/16 09:11:37;;;;;;;0.00;0.00;;;8.60;99.90;;;;;;5055504;28;20060;-85
2021/12/16 09:14:03;;;;;;;0.05;0.05;;;8.30;99.90;;;;;;5038814;28;20080;-84
2021/12/16 09:16:31;;;;;;;0.57;0.57;;;8.40;99.90;;;;;;5038096;28;20091;-84
2021/12/16 09:18:57;;;;;;;0.20;0.05;;;9.10;99.90;;;;;;5037501;28;20052;-84
2021/12/16 09:21:27;;;;;;;1.08;0.00;;;8.50;99.90;;;;;;5037812;28;20422;-85
2021/12/16 09:23:54;;;;;;;0.20;0.10;;;8.70;99.90;;;;;;5054026;28;20044;-85
2021/12/16 09:26:20;;;;;;;0.80;0.43;;;8.80;99.90;;;;;;5037669;28;20527;-85
2021/12/16 09:28:48;;;;;;;0.25;0.13;;;8.70;99.90;;;;;;5054356;28;20041;-87
2021/12/16 09:31:16;;;;;;;0.38;0.00;;;8.80;99.90;;;;;;5037382;28;20516;-85
2021/12/16 09:33:45;;;;;;;1.20;0.30;;;8.80;99.90;;;;;;5037921;28;20053;-85
2021/12/16 09:36:13;;;;;;;1.58;0.00;;;9.00;99.90;;;;;;5038013;28;20131;-85
2021/12/16 09:38:39;;;;;;;0.20;0.20;;;9.10;99.90;;;;;;5037111;28;20037;-85
2021/12/16 09:41:06;;;;;;;0.00;0.00;;;8.90;99.90;;;;;;5058362;28;20052;-85
2021/12/16 09:43:37;;;;;;;0.43;0.25;;;8.80;99.90;;;;;;5052835;28;20059;-84
2021/12/16 09:46:07;;;;;;;3.88;0.65;;;8.80;99.90;;;;;;5044885;28;20215;-84
2021/12/16 09:48:35;;;;;;;1.00;0.52;;;8.70;99.90;;;;;;5045191;28;20055;-84
2021/12/16 09:51:04;;;;;;;0.13;0.10;;;8.90;99.90;;;;;;5040520;28;20126;-84
2021/12/16 09:53:30;;;;;;;1.95;0.60;;;8.70;99.90;;;;;;5047063;28;20041;-85
2021/12/16 09:56:01;;;;;;;0.00;0.00;;;8.70;99.90;;;;;;5056227;28;20047;-85
2021/12/16 09:58:33;;;;;;;0.45;0.45;;;8.70;99.90;;;;;;5055605;28;20056;-85
2021/12/16 10:00:59;;;;;;;0.20;0.20;;;8.70;99.90;;;;;;5056672;28;20051;-84
2021/12/16 10:03:28;;;;;;;0.00;0.00;;;8.80;99.90;;;;;;5056657;28;20036;-85
2021/12/16 10:05:55;;;;;;;0.75;0.38;;;8.60;99.90;;;;;;5056950;28;20468;-84
2021/12/16 10:08:21;;;;;;;0.00;0.00;;;8.80;99.90;;;;;;5057011;28;20373;-84
2021/12/16 10:10:47;;;;;;;0.00;0.00;;;8.80;99.90;;;;;;5057979;28;20135;-84
2021/12/16 10:13:21;;;;;;;0.00;0.00;;;8.90;99.90;;;;;;5056464;28;20476;-84
2021/12/16 10:18:18;;;;;;;0.03;0.03;;;8.70;99.90;;;;;;5074161;28;20052;-85
2021/12/16 10:21:01;;;;;;;0.63;0.00;;;8.70;99.90;;;;;;5056276;28;20113;-84
2021/12/16 10:23:29;;;;;;;0.10;0.10;;;8.80;99.90;;;;;;5056358;28;20448;-85
2021/12/16 10:25:59;;;;;;;0.40;0.00;;;8.80;99.90;;;;;;5074202;28;20131;-85
2021/12/16 10:28:31;;;;;;;0.63;0.28;;;8.80;99.90;;;;;;5073184;28;20048;-84
2021/12/16 10:31:08;;;;;;;0.90;0.47;;;8.80;99.90;;;;;;5057349;28;20044;-85
2021/12/16 10:33:45;;;;;;;2.25;0.00;;;8.80;99.90;;;;;;5056708;28;20040;-84
2021/12/16 10:36:18;;;;;;;0.00;0.00;;;8.80;99.90;;;;;;5056308;28;20052;-84
2021/12/16 10:38:48;;;;;;;0.22;0.13;;;8.80;99.90;;;;;;5073504;28;20106;-85
2021/12/16 10:41:20;;;;;;;0.40;0.35;;;8.90;99.90;;;;;;5045500;28;20145;-85
2021/12/16 10:43:53;;;;;;;0.13;0.13;;;8.90;99.90;;;;;;5056274;28;20062;-85
2021/12/16 10:46:25;;;;;;;0.32;0.17;;;8.90;99.90;;;;;;5037567;28;20049;-85
2021/12/16 10:48:55;;;;;;;0.00;0.00;;;8.90;99.90;;;;;;5041754;28;20044;-85
2021/12/16 10:51:24;;;;;;;0.10;0.10;;;8.90;99.90;;;;;;5058041;28;20044;-85
2021/12/16 10:53:53;;;;;;;0.00;0.00;;;8.90;99.90;;;;;;5068328;28;20032;-85
2021/12/16 10:56:24;;;;;;;0.00;0.00;;;8.80;99.90;;;;;;5055702;28;20052;-85
2021/12/16 10:59:00;;;;;;;0.55;0.15;;;9.00;99.90;;;;;;5056757;28;20049;-85
2021/12/16 11:01:47;;;;;;;0.10;0.10;;;8.90;99.90;;;;;;5056899;28;20055;-85
2021/12/16 11:04:13;;;;;;;0.75;0.10;;;8.90;99.90;;;;;;5056074;28;20127;-85
2021/12/16 11:06:50;;;;;;;0.00;0.00;;;9.00;99.90;;;;;;5057378;28;20080;-84
2021/12/16 11:09:25;;;;;;;0.00;0.00;;;9.00;99.90;;;;;;5056451;28;20063;-84
2021/12/16 11:12:18;;;;;;;0.10;0.10;;;8.90;99.90;;;;;;5076889;28;20049;-85
2021/12/16 11:15:00;;;;;;;0.10;0.10;;;9.00;99.90;;;;;;5060440;28;20060;-85
2021/12/16 11:17:34;;;;;;;0.10;0.00;;;9.00;99.90;;;;;;5061876;28;20048;-85
2021/12/16 11:20:05;;;;;;;0.30;0.30;;;9.00;99.90;;;;;;5076919;28;20048;-84
2021/12/16 11:22:34;;;;;;;0.75;0.47;;;9.00;99.90;;;;;;5077342;28;20246;-84
2021/12/16 11:25:15;;;;;;;0.00;0.00;;;9.10;99.90;;;;;;5062720;28;20403;-84
2021/12/16 11:27:44;;;;;;;0.00;0.00;;;9.00;99.90;;;;;;5050460;28;20044;-85
2021/12/16 11:30:36;;;;;;;0.10;0.10;;;9.00;99.90;;;;;;5047708;28;20139;-84
2021/12/16 11:33:26;;;;;;;0.00;0.00;;;9.20;99.90;;;;;;5052130;28;20068;-84
2021/12/16 11:36:29;;;;;;;0.10;0.10;;;9.10;99.90;;;;;;5045751;28;20053;-84
2021/12/16 11:39:22;;;;;;;0.30;0.28;;;9.10;99.90;;;;;;5002094;28;20053;-84
2021/12/16 11:41:50;;;;;;;0.03;0.00;;;9.10;99.90;;;;;;4983868;28;20225;-83
2021/12/16 11:44:28;;;;;;;0.13;0.10;;;9.00;99.90;;;;;;4983023;28;20050;-84
2021/12/16 11:47:14;;;;;;;1.00;0.22;;;9.10;99.90;;;;;;4983496;28;20513;-85
2021/12/16 11:49:46;;;;;;;0.10;0.00;;;9.30;99.90;;;;;;4960506;28;20107;-85
2021/12/16 11:52:26;;;;;;;2.30;0.00;;;9.10;99.90;;;;;;4945155;28;20055;-85
2021/12/16 11:54:59;;;;;;;0.10;0.00;;;9.10;99.90;;;;;;4945135;28;20145;-85
2021/12/16 11:57:27;;;;;;;0.10;0.10;;;9.10;99.90;;;;;;4944989;28;20050;-85
2021/12/16 12:00:15;;;;;;;0.00;0.00;;;9.10;99.90;;;;;;4960976;28;20046;-85
2021/12/16 12:02:50;;;;;;;0.10;0.10;;;9.10;99.90;;;;;;4960795;28;20058;-85
2021/12/16 12:05:40;;;;;;;0.00;0.00;;;9.10;99.90;;;;;;4944661;28;20511;-85
2021/12/16 12:08:20;;;;;;;0.05;0.00;;;9.10;99.90;;;;;;4960218;28;20153;-85
2021/12/16 12:11:16;;;;;;;0.00;0.00;;;9.10;99.90;;;;;;4959881;28;20086;-85
2021/12/16 12:13:45;;;;;;;0.30;0.30;;;9.10;99.90;;;;;;4950483;28;20401;-86
2021/12/16 12:16:33;;;;;;;3.30;0.20;;;9.10;99.90;;;;;;5008266;28;20111;-85
2021/12/16 12:19:02;;;;;;;0.00;0.00;;;9.20;99.90;;;;;;4990721;28;20460;-85
2021/12/16 12:21:39;;;;;;;0.20;0.10;;;9.30;99.90;;;;;;4987430;28;20062;-85
2021/12/16 12:24:12;;;;;;;0.10;0.10;;;9.30;99.90;;;;;;5001105;28;20041;-86
2021/12/16 12:26:47;;;;;;;0.10;0.00;;;9.30;99.90;;;;;;5016337;28;20064;-84
2021/12/16 12:29:19;;;;;;;0.00;0.00;;;9.30;99.90;;;;;;5038749;28;20052;-85
2021/12/16 12:31:49;;;;;;;0.10;0.05;;;9.40;99.90;;;;;;5039346;28;20040;-84
2021/12/16 12:34:16;;;;;;;0.20;0.20;;;9.40;99.90;;;;;;5037950;28;20048;-85
2021/12/16 12:36:43;;;;;;;0.30;0.00;;;9.40;99.90;;;;;;5047407;28;20048;-85
2021/12/16 12:39:13;;;;;;;1.88;0.88;;;9.40;99.90;;;;;;5058465;28;20052;-84
2021/12/16 12:41:39;;;;;;;0.00;0.00;;;9.40;99.90;;;;;;5059033;28;20135;-85
2021/12/16 12:44:05;;;;;;;2.00;0.30;;;9.50;99.90;;;;;;5074938;28;20091;-85
2021/12/16 12:46:33;;;;;;;1.85;0.85;;;9.40;99.90;;;;;;5075666;28;20074;-84
2021/12/16 12:49:03;;;;;;;0.63;0.38;;;9.40;99.90;;;;;;5058813;28;20442;-85
2021/12/16 12:51:36;;;;;;;0.00;0.00;;;9.40;99.90;;;;;;5058513;28;20075;-87
2021/12/16 12:54:16;;;;;;;0.00;0.00;;;9.40;99.90;;;;;;5058000;28;20132;-85
2021/12/16 12:56:42;;;;;;;0.38;0.38;;;9.30;99.90;;;;;;5058397;28;20080;-84
2021/12/16 12:59:15;;;;;;;0.20;0.20;;;9.60;99.90;;;;;;5057169;28;20083;-85
2021/12/16 13:01:47;;;;;;;0.00;0.00;;;9.40;99.90;;;;;;5057377;28;20044;-84
2021/12/16 13:04:28;;;;;;;0.28;0.10;;;9.40;99.90;;;;;;5057052;28;20044;-84
2021/12/16 13:06:56;;;;;;;0.50;0.50;;;9.40;99.90;;;;;;5058129;28;20052;-85
2021/12/16 13:09:25;;;;;;;1.25;0.28;;;9.50;99.90;;;;;;5057211;28;20048;-85
2021/12/16 13:11:52;;;;;;;0.20;0.20;;;9.40;99.90;;;;;;5045973;28;20060;-85
2021/12/16 13:14:28;;;;;;;0.00;0.00;;;9.60;99.90;;;;;;5043037;28;20044;-86
2021/12/16 13:31:05;;;;;;;0.10;0.10;;;9.30;99.90;;;;;;5073743;28;20142;-84
2021/12/16 13:33:46;;;;;;;0.13;0.13;;;9.30;99.90;;;;;;5056990;28;20044;-84
2021/12/16 13:36:25;;;;;;;0.00;0.00;;;9.40;99.90;;;;;;5057005;28;20048;-85
2021/12/16 13:38:52;;;;;;;3.00;0.55;;;9.20;99.90;;;;;;5057566;28;20064;-84
2021/12/16 13:41:23;;;;;;;0.10;0.10;;;9.30;99.90;;;;;;5057299;28;20053;-84
2021/12/16 13:44:04;;;;;;;0.47;0.20;;;9.20;99.90;;;;;;5055916;28;20067;-84
2021/12/16 13:46:59;;;;;;;0.32;0.10;;;9.20;99.90;;;;;;5073951;28;20090;-84
2021/12/16 13:58:23;;;;;;;3.10;0.43;;;9.20;99.90;;;;;;5073280;28;20113;-85
2021/12/16 14:04:02;;;;;;;1.77;0.28;;;9.30;99.90;;;;;;5074321;28;20052;-86
2021/12/16 14:06:38;;;;;;;0.20;0.10;;;9.10;99.90;;;;;;5058079;28;20048;-86
2021/12/16 14:09:23;;;;;;;0.00;0.00;;;9.10;99.90;;;;;;5058347;28;20051;-86
2021/12/16 14:23:37;;;;;;;1.27;0.10;;;9.40;99.90;;;;;;5073826;28;20400;-85
2021/12/16 14:45:25;;;;;;;0.00;0.00;;;9.00;99.90;;;;;;5073096;28;20053;-85
2021/12/16 14:50:35;;;;;;;0.13;0.13;;;9.00;99.90;;;;;;5035040;28;20059;-85
2021/12/16 14:53:21;;;;;;;0.00;0.00;;;9.00;99.90;;;;;;5019074;28;20057;-85
2021/12/16 14:55:51;;;;;;;0.00;0.00;;;9.00;99.90;;;;;;5035840;28;20041;-86
2021/12/16 14:58:22;;;;;;;0.00;0.00;;;9.00;99.90;;;;;;5019141;28;20057;-85
2021/12/16 15:00:59;;;;;;;0.57;0.20;;;9.00;99.90;;;;;;5020028;28;20052;-86
2021/12/16 15:03:30;;;;;;;0.00;0.00;;;9.00;99.90;;;;;;5019420;28;20052;-85
2021/12/16 15:06:01;;;;;;;0.00;0.00;;;8.80;99.90;;;;;;5019985;28;20504;-85
2021/12/16 15:08:58;;;;;;;0.00;0.00;;;8.90;99.90;;;;;;5017941;28;20096;-85
2021/12/16 15:11:34;;;;;;;0.55;0.17;;;8.90;99.90;;;;;;5034597;28;20141;-86
2021/12/16 15:14:06;;;;;;;0.00;0.00;;;8.90;99.90;;;;;;5018841;28;20068;-85
2021/12/16 15:43:50;;;;;;;0.20;0.00;;;8.90;99.90;;;;;;5034918;28;20064;-85
2021/12/16 15:46:16;;;;;;;0.10;0.10;;;8.90;99.90;;;;;;5018306;28;20052;-85
2021/12/16 15:48:47;;;;;;;0.10;0.10;;;8.90;99.90;;;;;;5034692;28;20053;-85
2021/12/16 15:51:14;;;;;;;0.08;0.08;;;8.70;99.90;;;;;;5018661;28;20479;-85
2021/12/16 15:53:47;;;;;;;0.08;0.08;;;8.70;99.90;;;;;;5018530;28;20049;-85
2021/12/16 15:56:33;;;;;;;0.00;0.00;;;8.70;99.90;;;;;;5019672;28;20060;-85
2021/12/16 15:59:08;;;;;;;0.00;0.00;;;8.70;99.90;;;;;;5022162;28;20052;-85
2021/12/16 16:01:38;;;;;;;0.10;0.10;;;8.70;99.90;;;;;;5022658;28;20493;-85
2021/12/16 16:04:13;;;;;;;0.00;0.00;;;8.70;99.90;;;;;;5039249;28;20386;-87
2021/12/16 16:06:44;;;;;;;0.00;0.00;;;8.70;99.90;;;;;;5023500;28;20053;-84
2021/12/16 16:09:11;;;;;;;0.10;0.10;;;8.60;99.90;;;;;;5023130;28;20060;-85
2021/12/16 16:11:41;;;;;;;0.10;0.10;;;8.60;99.90;;;;;;5022676;28;20543;-85
2021/12/16 16:14:07;;;;;;;0.00;0.00;;;8.50;99.90;;;;;;5023235;28;20191;-85
2021/12/16 16:16:47;;;;;;;0.00;0.00;;;8.60;99.90;;;;;;5059472;28;20082;-85
2021/12/16 16:19:20;;;;;;;0.00;0.00;;;8.40;99.90;;;;;;5059952;28;20190;-85
2021/12/16 16:21:50;;;;;;;0.00;0.00;;;8.40;99.90;;;;;;5059542;28;20458;-85
2021/12/16 16:24:20;;;;;;;0.00;0.00;;;8.40;99.90;;;;;;5058684;28;20040;-85
2021/12/16 16:26:48;;;;;;;0.05;0.00;;;8.60;99.90;;;;;;5059778;28;20138;-85
2021/12/16 16:29:20;;;;;;;0.30;0.08;;;8.30;99.90;;;;;;5058945;28;20504;-85
2021/12/16 16:31:47;;;;;;;0.45;0.20;;;8.30;99.90;;;;;;5059456;28;20045;-85
2021/12/16 16:34:20;;;;;;;0.00;0.00;;;8.20;99.90;;;;;;5059013;28;20041;-86
2021/12/16 16:36:51;;;;;;;0.22;0.22;;;8.20;99.90;;;;;;5059647;28;20049;-85
2021/12/16 16:39:21;;;;;;;0.38;0.38;;;8.20;99.90;;;;;;5075319;28;20041;-85
2021/12/16 16:41:51;;;;;;;0.20;0.20;;;8.10;99.90;;;;;;5058473;28;20059;-85
2021/12/16 16:44:19;;;;;;;2.55;1.13;;;8.10;99.90;;;;;;5058094;28;20118;-85
2021/12/16 16:46:55;;;;;;;0.00;0.00;;;8.10;99.90;;;;;;5060244;28;20063;-85
2021/12/16 16:49:31;;;;;;;0.55;0.10;;;8.10;99.90;;;;;;5060027;28;20529;-85
2021/12/16 16:52:09;;;;;;;0.10;0.03;;;8.00;99.90;;;;;;5059234;28;20048;-85
2021/12/16 16:54:40;;;;;;;0.30;0.30;;;8.10;99.90;;;;;;5059035;28;20094;-85
2021/12/16 16:57:10;;;;;;;0.00;0.00;;;8.20;99.90;;;;;;5075880;28;20051;-85
2021/12/16 16:59:41;;;;;;;0.00;0.00;;;8.10;99.90;;;;;;5058628;28;20049;-85
2021/12/16 17:02:26;;;;;;;0.32;0.20;;;8.10;99.90;;;;;;5058974;28;20087;-85
2021/12/16 17:05:23;;;;;;;0.08;0.05;;;8.00;99.90;;;;;;5059615;28;20060;-85
2021/12/16 17:08:03;;;;;;;0.00;0.00;;;8.10;99.90;;;;;;5058960;28;20056;-85
2021/12/16 17:10:28;;;;;;;0.20;0.08;;;8.00;99.90;;;;;;5059764;28;20087;-85
2021/12/16 17:13:08;;;;;;;0.00;0.00;;;8.00;99.90;;;;;;5075402;28;20089;-86
2021/12/16 17:15:42;;;;;;;0.05;0.00;;;8.10;99.90;;;;;;5075840;28;20063;-86